Terminal Aerodrome Forecast
Issued by NWS

Home | Current Version | Previous Version | Graphics & Text | Print | Product List | Glossary On
Versions: 1 2 3 4 5 6 7 8 9 10 11 12 13 14 15 16 17 18 19 20 21 22 23 24
000
FTUS43 KBIS 162330
TAFMOT
TAF
KMOT 162330Z 1700/1724 12016G23KT P6SM SKC
     FM170500 12013G24KT P6SM SCT250 WS020/14045KT
     FM171500 12017G26KT P6SM BKN200
     FM172100 11012G19KT 6SM -RASN OVC020=

USA.gov is the U.S. government's official web portal to all federal, state and local government web resources and services.